createdAt,value
2022-08-07T00:01:44.394Z,101893.99
2022-08-07T00:02:41.504Z,101896.73
2022-08-07T00:03:59.111Z,101898.12
2022-08-07T00:05:15.509Z,101894.06
2022-08-07T00:06:33.436Z,101893.28
2022-08-07T00:07:50.539Z,101895.84
2022-08-07T00:09:16.698Z,101893.52
2022-08-07T00:10:34.518Z,101891.49
2022-08-07T00:11:55.476Z,101892.62
2022-08-07T00:13:23.685Z,101894.71
2022-08-07T00:14:35.343Z,101892.23
2022-08-07T00:15:52.135Z,101894.00
2022-08-07T00:17:08.515Z,101893.10
2022-08-07T00:18:25.209Z,101885.22
2022-08-07T00:20:01.075Z,101890.05
2022-08-07T00:21:07.989Z,101887.48
2022-08-07T00:22:35.057Z,101887.09
2022-08-07T00:23:49.128Z,101884.52
2022-08-07T00:25:07.018Z,101885.56
2022-08-07T00:26:59.124Z,101881.38
2022-08-07T00:27:53.465Z,101881.84
2022-08-07T00:29:06.138Z,101880.64
2022-08-07T00:30:28.171Z,101879.91
2022-08-07T00:31:43.682Z,101878.47
2022-08-07T00:33:07.745Z,101874.14
2022-08-07T00:34:25.384Z,101879.11
2022-08-07T00:35:45.386Z,101875.17
2022-08-07T00:37:04.942Z,101878.00
2022-08-07T00:38:31.127Z,101876.39
2022-08-07T00:39:45.072Z,101877.34
2022-08-07T00:41:02.925Z,101875.80
2022-08-07T00:42:19.305Z,101873.80
2022-08-07T00:44:01.081Z,101876.39
2022-08-07T00:45:01.806Z,101874.05
2022-08-07T00:46:24.946Z,101876.95
2022-08-07T00:48:08.121Z,101876.61
2022-08-07T00:49:03.113Z,101875.23
2022-08-07T00:50:43.916Z,101872.93
2022-08-07T00:51:57.403Z,101871.23
2022-08-07T00:53:04.119Z,101871.05
2022-08-07T00:54:25.341Z,101867.19
2022-08-07T00:56:02.206Z,101867.28
2022-08-07T00:57:05.033Z,101868.80
2022-08-07T00:58:24.542Z,101865.83
2022-08-07T00:59:41.212Z,101865.59
2022-08-07T01:00:57.584Z,101865.44
2022-08-07T01:02:29.266Z,101863.51
2022-08-07T01:03:56.205Z,101863.24
2022-08-07T01:05:00.975Z,101865.17
2022-08-07T01:06:18.927Z,101864.84
2022-08-07T01:07:38.215Z,101861.73
2022-08-07T01:08:55.775Z,101863.81
2022-08-07T01:10:12.771Z,101861.98
2022-08-07T01:12:10.298Z,101864.30
2022-08-07T01:12:53.817Z,101863.27
2022-08-07T01:14:15.576Z,101855.70
2022-08-07T01:16:00.841Z,101860.20
2022-08-07T01:16:58.194Z,101855.95
2022-08-07T01:18:17.549Z,101854.56
2022-08-07T01:19:34.202Z,101856.00
2022-08-07T01:20:57.210Z,101861.31
2022-08-07T01:22:16.144Z,101860.84
2022-08-07T01:23:40.107Z,101860.21
2022-08-07T01:24:58.136Z,101861.81
2022-08-07T01:26:16.702Z,101862.95
2022-08-07T01:27:38.538Z,101859.55
2022-08-07T01:28:59.326Z,101858.35
2022-08-07T01:30:18.985Z,101856.02
2022-08-07T01:31:41.553Z,101855.92
2022-08-07T01:33:00.479Z,101859.14
2022-08-07T01:34:19.069Z,101858.82
2022-08-07T01:35:53.667Z,101858.20
2022-08-07T01:36:59.093Z,101859.23
2022-08-07T01:38:15.760Z,101856.59
2022-08-07T01:39:40.900Z,101852.55
2022-08-07T01:41:02.134Z,101849.58
2022-08-07T01:42:40.163Z,101851.92
2022-08-07T01:43:41.653Z,101852.14
2022-08-07T01:45:01.175Z,101851.51
2022-08-07T01:46:19.508Z,101851.02
2022-08-07T01:48:20.850Z,101852.55
2022-08-07T01:49:01.702Z,101847.49
2022-08-07T01:50:22.783Z,101850.28
2022-08-07T01:52:03.869Z,101850.39
2022-08-07T01:53:08.886Z,101848.34
2022-08-07T01:54:36.407Z,101851.24
2022-08-07T01:55:50.588Z,101854.62
2022-08-07T01:57:08.234Z,101851.66
2022-08-07T01:58:29.250Z,101856.39
2022-08-07T01:59:48.277Z,101853.02
2022-08-07T02:01:25.363Z,101856.23
2022-08-07T02:02:32.775Z,101853.59
2022-08-07T02:03:51.414Z,101852.05
2022-08-07T02:05:15.813Z,101850.94
2022-08-07T02:06:32.963Z,101847.52
2022-08-07T02:07:51.808Z,101848.84
2022-08-07T02:09:08.195Z,101849.10
2022-08-07T02:10:30.324Z,101853.36
2022-08-07T02:12:03.527Z,101848.14
2022-08-07T02:13:11.803Z,101850.66
2022-08-07T02:14:36.325Z,101847.84
2022-08-07T02:15:54.496Z,101848.02
2022-08-07T02:17:11.254Z,101846.62
2022-08-07T02:18:27.658Z,101849.30
2022-08-07T02:20:05.371Z,101851.12
2022-08-07T02:21:13.849Z,101847.52
2022-08-07T02:22:34.600Z,101848.16
2022-08-07T02:23:53.414Z,101845.27
2022-08-07T02:25:17.378Z,101842.70
2022-08-07T02:26:34.743Z,101843.02
2022-08-07T02:27:54.552Z,101838.76
2022-08-07T02:29:13.907Z,101838.92
2022-08-07T02:30:30.553Z,101843.56
2022-08-07T02:31:49.464Z,101845.36
2022-08-07T02:33:09.528Z,101845.09
2022-08-07T02:34:28.968Z,101847.02
2022-08-07T02:36:30.821Z,101840.77
2022-08-07T02:37:10.658Z,101843.41
2022-08-07T02:38:31.906Z,101841.48
2022-08-07T02:40:02.193Z,101840.52
2022-08-07T02:41:11.698Z,101839.00
2022-08-07T02:42:32.889Z,101840.12
2022-08-07T02:43:51.519Z,101835.78
2022-08-07T02:45:57.385Z,101837.12
2022-08-07T02:46:33.142Z,101839.62
2022-08-07T02:47:53.100Z,101833.77
2022-08-07T02:49:09.561Z,101836.50
2022-08-07T02:50:31.008Z,101828.62
2022-08-07T02:51:52.024Z,101834.16
2022-08-07T02:53:10.738Z,101834.73
2022-08-07T02:54:29.325Z,101831.35
2022-08-07T02:56:02.604Z,101832.56
2022-08-07T02:57:07.765Z,101832.25
2022-08-07T02:58:27.225Z,101829.25
2022-08-07T03:00:00.805Z,101827.74
2022-08-07T03:01:16.098Z,101826.92
2022-08-07T03:02:32.206Z,101824.19
2022-08-07T03:03:50.906Z,101822.67
2022-08-07T03:05:09.611Z,101822.42
2022-08-07T03:06:33.371Z,101823.63
2022-08-07T03:08:05.353Z,101822.98
2022-08-07T03:09:14.311Z,101824.66
2022-08-07T03:10:30.951Z,101828.62
2022-08-07T03:11:51.803Z,101831.67
2022-08-07T03:13:11.443Z,101826.92
2022-08-07T03:14:33.692Z,101829.66
2022-08-07T03:15:56.582Z,101825.00
2022-08-07T03:17:13.404Z,101827.47
2022-08-07T03:18:34.991Z,101826.83
2022-08-07T03:19:54.640Z,101826.98
2022-08-07T03:21:13.556Z,101828.22
2022-08-07T03:22:34.811Z,101824.16
2022-08-07T03:24:19.559Z,101825.88
2022-08-07T03:25:16.277Z,101827.14
2022-08-07T03:26:50.942Z,101830.20
2022-08-07T03:28:09.449Z,101821.86
2022-08-07T03:29:25.780Z,101825.12
2022-08-07T03:30:44.030Z,101825.28
2022-08-07T03:32:02.593Z,101826.02
2022-08-07T03:33:20.230Z,101823.53
2022-08-07T03:34:39.143Z,101819.36
2022-08-07T03:35:57.851Z,101818.05
2022-08-07T03:37:16.973Z,101818.71
2022-08-07T03:38:34.836Z,101819.12
2022-08-07T03:39:58.970Z,101817.91
2022-08-07T03:41:14.646Z,101815.34
2022-08-07T03:42:32.115Z,101814.11
2022-08-07T03:43:57.275Z,101811.48
2022-08-07T03:45:29.927Z,101814.44
2022-08-07T03:46:36.777Z,101809.46
2022-08-07T03:47:58.086Z,101810.59
2022-08-07T03:49:16.632Z,101809.23
2022-08-07T03:50:33.029Z,101814.86
2022-08-07T03:52:01.257Z,101806.96
2022-08-07T03:53:12.471Z,101809.28
2022-08-07T03:54:35.352Z,101810.67
2022-08-07T03:55:58.328Z,101810.36
2022-08-07T03:58:32.638Z,101811.45
2022-08-07T03:59:08.706Z,101808.07
2022-08-07T04:00:02.591Z,101812.73
2022-08-07T04:01:17.309Z,101814.29
2022-08-07T04:02:33.716Z,101814.34
2022-08-07T04:03:55.146Z,101815.25
2022-08-07T04:05:12.139Z,101812.89
2022-08-07T04:06:37.787Z,101811.45
2022-08-07T04:07:50.834Z,101810.58
2022-08-07T04:09:15.748Z,101805.84
2022-08-07T04:10:34.007Z,101812.02
2022-08-07T04:12:27.782Z,101811.69
2022-08-07T04:13:16.437Z,101811.14
2022-08-07T04:14:43.847Z,101807.66
2022-08-07T04:16:00.820Z,101808.47
2022-08-07T04:18:31.074Z,101811.95
2022-08-07T04:18:59.452Z,101813.45
2022-08-07T04:20:01.571Z,101809.29
2022-08-07T04:21:18.251Z,101807.52
2022-08-07T04:22:36.572Z,101810.51
2022-08-07T04:24:05.931Z,101812.99
2022-08-07T04:25:16.215Z,101809.53
2022-08-07T04:26:34.544Z,101811.63
2022-08-07T04:27:59.478Z,101811.63
2022-08-07T04:29:14.875Z,101814.52
2022-08-07T04:30:39.560Z,101815.17
2022-08-07T04:32:03.068Z,101814.61
2022-08-07T04:33:18.983Z,101815.95
2022-08-07T04:34:36.543Z,101819.91
2022-08-07T04:35:57.943Z,101817.71
2022-08-07T04:37:20.469Z,101818.38
2022-08-07T04:38:38.951Z,101819.48
2022-08-07T04:39:57.330Z,101826.33
2022-08-07T04:41:19.281Z,101820.45
2022-08-07T04:42:37.685Z,101820.29
2022-08-07T04:44:13.207Z,101821.41
2022-08-07T04:45:17.768Z,101821.04
2022-08-07T04:46:59.311Z,101818.36
2022-08-07T04:48:07.748Z,101819.16
2022-08-07T04:49:25.692Z,101821.33
2022-08-07T04:50:42.105Z,101821.92
2022-08-07T04:51:58.745Z,101822.62
2022-08-07T04:53:27.784Z,101823.83
2022-08-07T04:54:39.577Z,101825.34
2022-08-07T04:58:10.761Z,101826.26
2022-08-07T04:58:13.685Z,101826.65
2022-08-07T05:00:12.634Z,101830.75
2022-08-07T05:01:30.219Z,101833.98
2022-08-07T05:02:49.180Z,101829.14
2022-08-07T05:04:17.144Z,101827.67
2022-08-07T05:05:52.859Z,101824.94
2022-08-07T05:06:53.082Z,101832.92
2022-08-07T05:08:11.632Z,101833.80
2022-08-07T05:09:45.730Z,101831.16
2022-08-07T05:10:58.340Z,101830.66
2022-08-07T05:12:27.169Z,101835.39
2022-08-07T05:14:53.404Z,101833.88
2022-08-07T05:15:04.561Z,101832.10
2022-08-07T05:16:21.386Z,101828.41
2022-08-07T05:18:00.599Z,101829.86
2022-08-07T05:19:03.377Z,101825.17
2022-08-07T05:20:22.638Z,101836.12
2022-08-07T05:21:59.251Z,101834.12
2022-08-07T05:23:04.618Z,101834.84
2022-08-07T05:24:21.380Z,101833.38
2022-08-07T05:26:11.774Z,101835.95
2022-08-07T05:27:06.190Z,101836.70
2022-08-07T05:28:29.551Z,101836.04
2022-08-07T05:29:51.163Z,101838.61
2022-08-07T05:31:09.093Z,101842.80
2022-08-07T05:32:27.764Z,101843.77
2022-08-07T05:34:01.162Z,101847.31
2022-08-07T05:35:05.334Z,101847.94
2022-08-07T05:36:22.318Z,101850.19
2022-08-07T05:37:42.384Z,101850.03
2022-08-07T05:40:05.988Z,101852.28
2022-08-07T05:40:24.058Z,101852.77
2022-08-07T05:42:02.350Z,101856.32
2022-08-07T05:43:10.569Z,101854.70
2022-08-07T05:44:29.931Z,101854.85
2022-08-07T05:45:48.516Z,101854.62
2022-08-07T05:47:11.783Z,101856.62
2022-08-07T05:48:30.009Z,101853.81
2022-08-07T05:49:46.671Z,101850.92
2022-08-07T05:51:05.240Z,101850.37
2022-08-07T05:52:30.027Z,101853.66
2022-08-07T05:54:12.054Z,101849.64
2022-08-07T05:55:10.553Z,101853.24
2022-08-07T05:56:30.161Z,101852.46
2022-08-07T05:57:48.623Z,101849.08
2022-08-07T05:59:08.623Z,101854.71
2022-08-07T06:00:27.605Z,101850.85
2022-08-07T06:01:46.264Z,101855.03
2022-08-07T06:03:03.577Z,101854.88
2022-08-07T06:04:26.352Z,101856.16
2022-08-07T06:05:49.057Z,101847.55
2022-08-07T06:07:08.889Z,101851.71
2022-08-07T06:08:32.469Z,101857.75
2022-08-07T06:10:05.381Z,101856.05
2022-08-07T06:11:12.502Z,101857.18
2022-08-07T06:12:33.035Z,101858.89
2022-08-07T06:14:12.256Z,101858.72
2022-08-07T06:15:16.077Z,101862.25
2022-08-07T06:16:34.903Z,101863.30
2022-08-07T06:17:54.985Z,101862.25
2022-08-07T06:19:18.033Z,101859.36
2022-08-07T06:20:49.470Z,101865.97
2022-08-07T06:22:15.027Z,101860.80
2022-08-07T06:23:46.488Z,101859.22
2022-08-07T06:24:53.326Z,101865.15
2022-08-07T06:26:08.055Z,101864.59
2022-08-07T06:28:00.153Z,101863.61
2022-08-07T06:28:50.669Z,101864.68
2022-08-07T06:30:31.820Z,101865.54
2022-08-07T06:31:46.809Z,101863.54
2022-08-07T06:32:55.705Z,101860.33
2022-08-07T06:34:14.095Z,101859.28
2022-08-07T06:35:39.132Z,101861.68
2022-08-07T06:36:54.762Z,101864.36
2022-08-07T06:38:19.204Z,101860.64
2022-08-07T06:40:15.953Z,101859.12
2022-08-07T06:40:57.559Z,101863.23
2022-08-07T06:42:16.144Z,101861.20
2022-08-07T06:43:39.429Z,101861.95
2022-08-07T06:44:57.675Z,101859.36
2022-08-07T06:46:15.984Z,101859.68
2022-08-07T06:47:57.459Z,101853.57
2022-08-07T06:49:04.324Z,101858.55
2022-08-07T06:50:22.944Z,101855.34
2022-08-07T06:51:43.418Z,101850.77
2022-08-07T06:53:06.027Z,101850.59
2022-08-07T06:55:32.814Z,101847.53
2022-08-07T06:56:00.342Z,101851.88
2022-08-07T06:57:15.542Z,101849.41
2022-08-07T06:58:35.049Z,101851.81
2022-08-07T07:00:15.034Z,101846.75
2022-08-07T07:01:17.031Z,101849.08
2022-08-07T07:02:53.431Z,101843.92
2022-08-07T07:04:04.230Z,101840.22
2022-08-07T07:06:03.200Z,101835.80
2022-08-07T07:07:00.320Z,101837.97
2022-08-07T07:08:07.194Z,101838.20
2022-08-07T07:09:30.893Z,101836.69
2022-08-07T07:10:56.767Z,101841.09
2022-08-07T07:12:19.635Z,101841.84
2022-08-07T07:13:56.637Z,101841.26
2022-08-07T07:14:59.298Z,101842.65
2022-08-07T07:16:19.552Z,101844.42
2022-08-07T07:17:38.833Z,101842.48
2022-08-07T07:18:57.869Z,101837.97
2022-08-07T07:20:16.200Z,101840.72
2022-08-07T07:22:05.391Z,101841.04
2022-08-07T07:24:08.377Z,101835.73
2022-08-07T07:24:17.406Z,101837.50
2022-08-07T07:26:35.524Z,101835.55
2022-08-07T07:26:58.961Z,101840.88
2022-08-07T07:28:29.948Z,101840.88
2022-08-07T07:30:07.495Z,101837.67
2022-08-07T07:31:03.613Z,101841.28
2022-08-07T07:32:21.944Z,101837.02
2022-08-07T07:33:40.275Z,101834.59
2022-08-07T07:34:59.551Z,101832.03
2022-08-07T07:36:17.886Z,101838.40
2022-08-07T07:37:56.021Z,101839.19
2022-08-07T07:39:00.820Z,101836.41
2022-08-07T07:40:19.287Z,101833.50
2022-08-07T07:41:50.778Z,101836.86
2022-08-07T07:43:02.365Z,101835.02
2022-08-07T07:44:26.064Z,101831.88
2022-08-07T07:46:53.319Z,101831.41
2022-08-07T07:47:15.733Z,101825.53
2022-08-07T07:48:35.789Z,101825.86
2022-08-07T07:50:32.770Z,101822.50
2022-08-07T07:51:15.488Z,101822.19
2022-08-07T07:52:33.892Z,101820.88
2022-08-07T07:53:53.759Z,101820.14
2022-08-07T07:55:12.124Z,101814.70
2022-08-07T07:56:31.427Z,101820.01
2022-08-07T07:57:54.026Z,101813.73
2022-08-07T07:59:15.056Z,101813.23
2022-08-07T08:00:35.125Z,101818.08
2022-08-07T08:02:02.805Z,101819.11
2022-08-07T08:04:06.183Z,101813.73
2022-08-07T08:04:38.503Z,101808.49
2022-08-07T08:05:59.621Z,101813.25
2022-08-07T08:07:20.162Z,101813.98
2022-08-07T08:08:39.440Z,101810.26
2022-08-07T08:10:05.543Z,101810.27
2022-08-07T08:12:00.024Z,101806.73
2022-08-07T08:12:59.114Z,101809.33
2022-08-07T08:14:07.883Z,101802.72
2022-08-07T08:15:26.232Z,101805.22
2022-08-07T08:16:49.408Z,101809.48
2022-08-07T08:18:17.974Z,101806.47
2022-08-07T08:20:18.632Z,101808.88
2022-08-07T08:20:54.916Z,101807.50
2022-08-07T08:22:15.946Z,101807.16
2022-08-07T08:23:32.306Z,101802.68
2022-08-07T08:25:04.683Z,101798.65
2022-08-07T08:26:17.087Z,101798.56
2022-08-07T08:27:35.960Z,101801.94
2022-08-07T08:28:54.279Z,101798.09
2022-08-07T08:30:14.367Z,101800.19
2022-08-07T08:32:17.304Z,101798.80
2022-08-07T08:32:58.999Z,101798.32
2022-08-07T08:34:26.808Z,101799.23
2022-08-07T08:35:50.052Z,101794.64
2022-08-07T08:37:04.053Z,101793.68
2022-08-07T08:38:29.928Z,101789.98
2022-08-07T08:39:55.172Z,101789.98
2022-08-07T08:41:13.256Z,101792.05
2022-08-07T08:42:30.704Z,101793.98
2022-08-07T08:43:59.226Z,101790.52
2022-08-07T08:45:13.415Z,101797.20
2022-08-07T08:46:32.697Z,101792.39
2022-08-07T08:47:54.849Z,101793.66
2022-08-07T08:49:13.877Z,101787.86
2022-08-07T08:50:39.698Z,101791.67
2022-08-07T08:52:14.239Z,101791.09
2022-08-07T08:53:17.389Z,101795.44
2022-08-07T08:54:36.040Z,101791.90
2022-08-07T08:55:58.663Z,101793.43
2022-08-07T08:57:16.494Z,101790.78
2022-08-07T08:58:36.977Z,101787.23
2022-08-07T08:59:55.305Z,101783.63
2022-08-07T09:01:18.632Z,101784.49
2022-08-07T09:02:37.965Z,101779.92
2022-08-07T09:03:55.481Z,101782.88
2022-08-07T09:05:14.920Z,101786.69
2022-08-07T09:06:32.094Z,101783.05
2022-08-07T09:07:58.153Z,101783.20
2022-08-07T09:09:20.621Z,101783.05
2022-08-07T09:10:34.838Z,101782.88
2022-08-07T09:11:54.514Z,101775.10
2022-08-07T09:13:15.408Z,101776.20
2022-08-07T09:14:33.720Z,101778.95
2022-08-07T09:16:23.407Z,101777.19
2022-08-07T09:17:15.250Z,101776.85
2022-08-07T09:18:31.937Z,101777.58
2022-08-07T09:19:55.137Z,101778.80
2022-08-07T09:21:34.023Z,101772.68
2022-08-07T09:24:33.302Z,101776.94
2022-08-07T09:24:33.366Z,101773.07
2022-08-07T09:25:21.730Z,101776.52
2022-08-07T09:26:47.789Z,101773.73
2022-08-07T09:28:04.895Z,101772.27
2022-08-07T09:30:04.271Z,101780.55
2022-08-07T09:30:46.415Z,101777.91
2022-08-07T09:32:05.908Z,101770.83
2022-08-07T09:33:52.602Z,101769.30
2022-08-07T09:34:53.913Z,101768.01
2022-08-07T09:36:12.591Z,101773.06
2022-08-07T09:37:47.970Z,101770.81
2022-08-07T09:38:54.350Z,101770.59
2022-08-07T09:40:12.717Z,101765.02
2022-08-07T09:41:43.314Z,101770.44
2022-08-07T09:42:57.151Z,101765.66
2022-08-07T09:44:19.962Z,101764.80
2022-08-07T09:47:27.310Z,101758.52
2022-08-07T09:47:52.330Z,101765.58
2022-08-07T09:48:25.156Z,101755.05
2022-08-07T09:50:03.822Z,101758.45
2022-08-07T09:51:14.735Z,101757.88
2022-08-07T09:52:34.341Z,101746.05
2022-08-07T09:53:59.302Z,101750.40
2022-08-07T09:55:28.785Z,101745.25
2022-08-07T09:56:41.942Z,101740.09
2022-08-07T09:58:00.688Z,101743.45
2022-08-07T09:59:21.936Z,101741.87
2022-08-07T10:00:41.033Z,101741.14
2022-08-07T10:02:01.210Z,101740.01
2022-08-07T10:04:05.433Z,101738.31
2022-08-07T10:04:47.664Z,101743.56
2022-08-07T10:06:12.036Z,101738.15
2022-08-07T10:07:31.655Z,101735.58
2022-08-07T10:08:52.601Z,101737.52
2022-08-07T10:10:12.066Z,101738.72
2022-08-07T10:12:01.460Z,101733.66
2022-08-07T10:12:56.609Z,101734.38
2022-08-07T10:14:14.944Z,101732.03
2022-08-07T10:15:44.332Z,101730.89
2022-08-07T10:17:01.337Z,101732.03
2022-08-07T10:18:19.845Z,101729.53
2022-08-07T10:19:38.678Z,101729.55
2022-08-07T10:20:57.117Z,101725.59
2022-08-07T10:22:17.182Z,101727.77
2022-08-07T10:24:06.658Z,101723.10
2022-08-07T10:24:59.634Z,101726.16
2022-08-07T10:26:24.923Z,101724.48
2022-08-07T10:27:46.227Z,101718.84
2022-08-07T10:29:04.365Z,101730.09
2022-08-07T10:30:22.761Z,101728.48
2022-08-07T10:31:45.250Z,101725.91
2022-08-07T10:33:07.092Z,101721.72
2022-08-07T10:34:32.059Z,101724.78
2022-08-07T10:35:56.059Z,101720.77
2022-08-07T10:37:13.357Z,101722.53
2022-08-07T10:38:35.845Z,101722.29
2022-08-07T10:40:03.270Z,101720.54
2022-08-07T10:41:47.454Z,101724.22
2022-08-07T10:42:41.221Z,101719.00
2022-08-07T10:44:02.286Z,101716.10
2022-08-07T10:45:48.030Z,101714.72
2022-08-07T10:46:45.238Z,101713.61
2022-08-07T10:48:04.143Z,101712.97
2022-08-07T10:49:24.539Z,101708.05
2022-08-07T10:50:44.874Z,101706.75
2022-08-07T10:52:13.487Z,101703.22
2022-08-07T10:53:41.868Z,101701.19
2022-08-07T10:54:55.167Z,101702.64
2022-08-07T10:56:20.702Z,101697.48
2022-08-07T10:57:39.449Z,101704.52
2022-08-07T10:58:59.786Z,101704.67
2022-08-07T11:00:39.293Z,101697.48
2022-08-07T11:01:51.526Z,101692.12
2022-08-07T11:03:02.754Z,101688.31
2022-08-07T11:04:32.181Z,101682.78
2022-08-07T11:05:51.063Z,101685.91
2022-08-07T11:07:14.994Z,101683.41
2022-08-07T11:08:31.799Z,101675.69
2022-08-07T11:10:09.071Z,101677.14
2022-08-07T11:11:14.309Z,101677.21
2022-08-07T11:12:35.391Z,101670.70
2022-08-07T11:14:44.469Z,101669.51
2022-08-07T11:15:17.688Z,101673.45
2022-08-07T11:16:36.215Z,101675.69
2022-08-07T11:17:53.950Z,101670.77
2022-08-07T11:19:12.462Z,101671.10
2022-08-07T11:20:30.773Z,101665.89
2022-08-07T11:21:49.136Z,101666.44
2022-08-07T11:23:09.138Z,101663.63
2022-08-07T11:24:27.925Z,101665.86
2022-08-07T11:25:49.722Z,101667.47
2022-08-07T11:27:08.666Z,101662.48
2022-08-07T11:28:31.809Z,101658.62
2022-08-07T11:30:10.202Z,101660.23
2022-08-07T11:31:13.369Z,101661.04
2022-08-07T11:32:31.188Z,101662.00
2022-08-07T11:33:59.702Z,101660.81
2022-08-07T11:35:16.479Z,101665.69
2022-08-07T11:36:34.990Z,101660.53
2022-08-07T11:37:58.174Z,101657.34
2022-08-07T11:39:19.833Z,101657.48
2022-08-07T11:40:38.654Z,101656.03
2022-08-07T11:42:01.472Z,101655.88
2022-08-07T11:43:41.540Z,101653.70
2022-08-07T11:44:52.334Z,101656.20
2022-08-07T11:46:07.359Z,101650.88
2022-08-07T11:47:39.023Z,101648.95
2022-08-07T11:49:51.517Z,101647.44
2022-08-07T11:50:31.896Z,101645.73
2022-08-07T11:51:41.532Z,101645.42
2022-08-07T11:52:58.389Z,101646.45
2022-08-07T11:54:25.321Z,101644.68
2022-08-07T11:56:11.929Z,101642.52
2022-08-07T11:57:05.319Z,101643.39
2022-08-07T11:58:33.410Z,101642.59
2022-08-07T12:00:10.939Z,101642.20
2022-08-07T12:01:20.376Z,101643.56
2022-08-07T12:02:37.974Z,101640.11
2022-08-07T12:03:56.406Z,101637.70
2022-08-07T12:05:28.951Z,101642.44
2022-08-07T12:06:39.496Z,101640.42
2022-08-07T12:08:00.596Z,101639.71
2022-08-07T12:09:23.452Z,101636.56
2022-08-07T12:10:42.258Z,101631.56
2022-08-07T12:12:10.924Z,101634.95
2022-08-07T12:13:35.475Z,101631.82
2022-08-07T12:14:51.450Z,101635.66
2022-08-07T12:16:10.077Z,101634.79
2022-08-07T12:17:33.901Z,101632.38
2022-08-07T12:18:52.380Z,101628.18
2022-08-07T12:20:20.805Z,101629.64
2022-08-07T12:22:36.350Z,101631.00
2022-08-07T12:22:58.798Z,101629.33
2022-08-07T12:24:37.485Z,101633.42
2022-08-07T12:26:21.347Z,101629.38
2022-08-07T12:27:03.701Z,101631.58
2022-08-07T12:28:31.195Z,101632.38
2022-08-07T12:29:51.507Z,101628.43
2022-08-07T12:31:09.433Z,101628.59
2022-08-07T12:32:27.765Z,101622.86
2022-08-07T12:34:01.238Z,101625.61
2022-08-07T12:35:09.317Z,101621.58
2022-08-07T12:36:33.166Z,101622.23
2022-08-07T12:38:09.037Z,101621.91
2022-08-07T12:39:42.479Z,101615.47
2022-08-07T12:40:46.501Z,101614.80
2022-08-07T12:42:02.472Z,101606.83
2022-08-07T12:44:03.586Z,101616.27
2022-08-07T12:44:45.205Z,101615.38
2022-08-07T12:46:03.681Z,101620.21
2022-08-07T12:47:27.028Z,101618.66
2022-08-07T12:48:51.995Z,101613.20
2022-08-07T12:50:38.161Z,101611.69
2022-08-07T12:51:46.570Z,101611.27
2022-08-07T12:52:55.728Z,101614.64
2022-08-07T12:54:38.014Z,101605.94
2022-08-07T12:55:41.044Z,101609.08
2022-08-07T12:57:01.049Z,101606.03
2022-08-07T12:58:28.296Z,101602.19
2022-08-07T12:59:55.154Z,101604.19
2022-08-07T13:01:07.825Z,101604.84
2022-08-07T13:02:25.761Z,101603.92
2022-08-07T13:04:02.030Z,101602.58
2022-08-07T13:06:02.089Z,101602.97
2022-08-07T13:06:35.300Z,101604.43
2022-08-07T13:08:12.002Z,101604.82
2022-08-07T13:10:18.899Z,101600.88
2022-08-07T13:10:51.652Z,101602.72
2022-08-07T13:12:10.207Z,101599.02
2022-08-07T13:13:47.133Z,101599.17
2022-08-07T13:14:51.432Z,101603.38
2022-08-07T13:16:10.033Z,101601.28
2022-08-07T13:17:40.624Z,101599.60
2022-08-07T13:18:51.545Z,101592.68
2022-08-07T13:20:11.356Z,101587.27
2022-08-07T13:21:50.504Z,101589.78
2022-08-07T13:22:53.507Z,101589.50
2022-08-07T13:24:12.047Z,101587.56
2022-08-07T13:25:32.578Z,101589.34
2022-08-07T13:26:51.358Z,101585.73
2022-08-07T13:28:13.580Z,101589.34
2022-08-07T13:29:34.715Z,101586.38
2022-08-07T13:31:01.709Z,101581.87
2022-08-07T13:32:32.691Z,101580.80
2022-08-07T13:34:33.279Z,101587.42
2022-08-07T13:35:08.483Z,101585.48
2022-08-07T13:36:25.853Z,101580.66
2022-08-07T13:37:55.537Z,101587.17
2022-08-07T13:39:13.120Z,101585.17
2022-08-07T13:40:36.155Z,101578.64
2022-08-07T13:41:54.696Z,101578.25
2022-08-07T13:43:13.401Z,101583.05
2022-08-07T13:44:34.645Z,101580.97
2022-08-07T13:46:20.695Z,101576.61
2022-08-07T13:47:21.792Z,101575.27
2022-08-07T13:48:41.809Z,101570.50
2022-08-07T13:50:35.816Z,101567.92
2022-08-07T13:52:04.923Z,101566.16
2022-08-07T13:52:51.622Z,101563.91
2022-08-07T13:54:09.961Z,101566.48
2022-08-07T13:55:34.143Z,101561.97
2022-08-07T13:56:55.808Z,101564.85
2022-08-07T13:58:18.934Z,101559.80
2022-08-07T13:59:36.602Z,101558.61
2022-08-07T14:00:58.205Z,101556.80
2022-08-07T14:02:16.894Z,101554.70
2022-08-07T14:04:05.653Z,101553.58
2022-08-07T14:04:57.738Z,101552.13
2022-08-07T14:06:16.025Z,101549.55
2022-08-07T14:07:36.065Z,101544.12
2022-08-07T14:08:59.219Z,101547.58
2022-08-07T14:10:28.488Z,101544.03
2022-08-07T14:11:53.458Z,101546.76
2022-08-07T14:13:08.908Z,101545.09
2022-08-07T14:14:27.226Z,101542.58
2022-08-07T14:15:50.538Z,101536.46
2022-08-07T14:17:12.992Z,101542.16
2022-08-07T14:18:32.641Z,101543.30
2022-08-07T14:20:42.314Z,101540.88
2022-08-07T14:22:00.379Z,101535.56
2022-08-07T14:22:38.864Z,101539.27
2022-08-07T14:24:01.934Z,101540.89
2022-08-07T14:25:20.728Z,101537.50
2022-08-07T14:26:39.179Z,101534.22
2022-08-07T14:28:10.918Z,101535.50
2022-08-07T14:30:07.389Z,101537.98
2022-08-07T14:30:45.276Z,101537.09
2022-08-07T14:32:03.797Z,101536.39
2022-08-07T14:33:22.296Z,101532.84
2022-08-07T14:34:46.160Z,101532.20
2022-08-07T14:36:04.787Z,101532.03
2022-08-07T14:37:32.946Z,101527.84
2022-08-07T14:38:50.779Z,101529.95
2022-08-07T14:40:17.301Z,101530.23
2022-08-07T14:41:33.829Z,101525.34
2022-08-07T14:44:17.958Z,101525.44
2022-08-07T14:45:47.048Z,101526.55
2022-08-07T14:47:14.194Z,101526.31
2022-08-07T14:48:27.303Z,101527.19
2022-08-07T14:49:57.115Z,101526.06
2022-08-07T14:51:16.056Z,101525.58
2022-08-07T14:52:32.760Z,101526.88
2022-08-07T14:54:09.941Z,101519.69
2022-08-07T14:55:17.724Z,101519.20
2022-08-07T14:56:35.219Z,101520.59
2022-08-07T14:57:58.187Z,101515.83
2022-08-07T15:00:04.556Z,101516.41
2022-08-07T15:00:40.631Z,101512.94
2022-08-07T15:01:58.993Z,101515.34
2022-08-07T15:03:19.729Z,101508.66
2022-08-07T15:04:38.592Z,101509.61
2022-08-07T15:06:04.158Z,101513.16
2022-08-07T15:07:23.155Z,101511.30
2022-08-07T15:08:50.069Z,101509.78
2022-08-07T15:10:04.804Z,101512.66
2022-08-07T15:12:54.683Z,101513.40
2022-08-07T15:14:11.220Z,101509.59
2022-08-07T15:15:30.747Z,101503.48
2022-08-07T15:16:55.139Z,101498.64
2022-08-07T15:20:30.426Z,101502.52
2022-08-07T15:22:31.370Z,101504.84
2022-08-07T15:25:02.694Z,101503.88
2022-08-07T15:25:17.064Z,101506.06
2022-08-07T15:26:33.142Z,101506.04
2022-08-07T15:28:32.246Z,101509.58
2022-08-07T15:31:04.552Z,101505.72